sensor_id;sensor_type;location;lat;lon;timestamp;pressure;altitude;pressure_sealevel;temperature;humidity
13867;BME280;7003;46.982;15.248;2023-07-20T00:01:22;96756.81;;;18.47;100.00
13867;BME280;7003;46.982;15.248;2023-07-20T00:03:52;96765.66;;;18.55;100.00
13867;BME280;7003;46.982;15.248;2023-07-20T00:06:25;96770.28;;;18.26;100.00
13867;BME280;7003;46.982;15.248;2023-07-20T00:08:53;96778.72;;;18.28;100.00
13867;BME280;7003;46.982;15.248;2023-07-20T00:11:21;96776.00;;;18.21;100.00
13867;BME280;7003;46.982;15.248;2023-07-20T00:13:51;96767.94;;;18.21;100.00
13867;BME280;7003;46.982;15.248;2023-07-20T00:16:19;96757.19;;;18.10;100.00
13867;BME280;7003;46.982;15.248;2023-07-20T00:18:48;96751.81;;;18.35;100.00
13867;BME280;7003;46.982;15.248;2023-07-20T00:21:19;96753.72;;;18.45;100.00
13867;BME280;7003;46.982;15.248;2023-07-20T00:23:49;96763.34;;;18.50;100.00
13867;BME280;7003;46.982;15.248;2023-07-20T00:26:18;96761.41;;;18.54;100.00
13867;BME280;7003;46.982;15.248;2023-07-20T00:28:46;96749.50;;;18.33;100.00
13867;BME280;7003;46.982;15.248;2023-07-20T00:31:14;96750.63;;;18.29;100.00
13867;BME280;7003;46.982;15.248;2023-07-20T00:33:44;96749.88;;;18.25;100.00
13867;BME280;7003;46.982;15.248;2023-07-20T00:36:16;96746.03;;;18.15;100.00
13867;BME280;7003;46.982;15.248;2023-07-20T00:38:43;96744.84;;;18.13;100.00
13867;BME280;7003;46.982;15.248;2023-07-20T00:41:11;96746.41;;;18.10;100.00
13867;BME280;7003;46.982;15.248;2023-07-20T00:43:42;96752.56;;;18.11;100.00
13867;BME280;7003;46.982;15.248;2023-07-20T00:46:12;96744.09;;;18.08;100.00
13867;BME280;7003;46.982;15.248;2023-07-20T00:48:41;96735.63;;;18.06;100.00
13867;BME280;7003;46.982;15.248;2023-07-20T00:51:09;96735.22;;;18.04;100.00
13867;BME280;7003;46.982;15.248;2023-07-20T00:53:42;96737.50;;;17.81;100.00
13867;BME280;7003;46.982;15.248;2023-07-20T00:56:10;96746.75;;;17.84;100.00
13867;BME280;7003;46.982;15.248;2023-07-20T00:58:40;96738.69;;;17.94;100.00
13867;BME280;7003;46.982;15.248;2023-07-20T01:01:07;96734.00;;;17.66;100.00
13867;BME280;7003;46.982;15.248;2023-07-20T01:03:36;96740.16;;;17.63;100.00
13867;BME280;7003;46.982;15.248;2023-07-20T01:06:12;96734.03;;;17.74;100.00
13867;BME280;7003;46.982;15.248;2023-07-20T01:08:55;96730.56;;;17.73;100.00
13867;BME280;7003;46.982;15.248;2023-07-20T01:11:39;96719.03;;;17.69;100.00
13867;BME280;7003;46.982;15.248;2023-07-20T01:14:12;96730.97;;;17.75;100.00
13867;BME280;7003;46.982;15.248;2023-07-20T01:16:40;96734.06;;;17.84;100.00
13867;BME280;7003;46.982;15.248;2023-07-20T01:19:08;96732.53;;;17.83;100.00
13867;BME280;7003;46.982;15.248;2023-07-20T01:21:41;96734.81;;;17.81;100.00
13867;BME280;7003;46.982;15.248;2023-07-20T01:24:45;96735.59;;;17.71;100.00
13867;BME280;7003;46.982;15.248;2023-07-20T01:30:56;96743.28;;;17.83;100.00
13867;BME280;7003;46.982;15.248;2023-07-20T01:33:29;96733.31;;;17.80;100.00
13867;BME280;7003;46.982;15.248;2023-07-20T01:36:01;96745.19;;;17.72;100.00
13867;BME280;7003;46.982;15.248;2023-07-20T01:38:36;96741.34;;;17.77;100.00
13867;BME280;7003;46.982;15.248;2023-07-20T01:41:10;96749.78;;;17.68;100.00
13867;BME280;7003;46.982;15.248;2023-07-20T01:43:45;96754.00;;;17.65;100.00
13867;BME280;7003;46.982;15.248;2023-07-20T01:46:13;96759.25;;;17.37;100.00
13867;BME280;7003;46.982;15.248;2023-07-20T01:48:51;96757.00;;;17.50;100.00
13867;BME280;7003;46.982;15.248;2023-07-20T01:51:19;96761.63;;;17.60;100.00
13867;BME280;7003;46.982;15.248;2023-07-20T01:53:52;96760.03;;;17.38;100.00
13867;BME280;7003;46.982;15.248;2023-07-20T01:56:22;96758.13;;;17.42;100.00
13867;BME280;7003;46.982;15.248;2023-07-20T01:58:52;96757.34;;;17.45;100.00
13867;BME280;7003;46.982;15.248;2023-07-20T02:01:22;96757.00;;;17.50;100.00
13867;BME280;7003;46.982;15.248;2023-07-20T02:03:50;96757.38;;;17.48;100.00
13867;BME280;7003;46.982;15.248;2023-07-20T02:06:20;96763.91;;;17.51;100.00
13867;BME280;7003;46.982;15.248;2023-07-20T02:08:48;96765.06;;;17.50;100.00
13867;BME280;7003;46.982;15.248;2023-07-20T02:11:18;96767.00;;;17.49;100.00
13867;BME280;7003;46.982;15.248;2023-07-20T02:13:48;96769.28;;;17.47;100.00
13867;BME280;7003;46.982;15.248;2023-07-20T02:16:15;96776.19;;;17.45;100.00
13867;BME280;7003;46.982;15.248;2023-07-20T02:18:46;96776.19;;;17.41;100.00
13867;BME280;7003;46.982;15.248;2023-07-20T02:21:19;96776.19;;;17.45;100.00
13867;BME280;7003;46.982;15.248;2023-07-20T02:23:49;96782.66;;;17.37;100.00
13867;BME280;7003;46.982;15.248;2023-07-20T02:26:17;96783.03;;;17.35;100.00
13867;BME280;7003;46.982;15.248;2023-07-20T02:28:44;96787.66;;;17.35;100.00
13867;BME280;7003;46.982;15.248;2023-07-20T02:31:15;96791.09;;;17.31;100.00
13867;BME280;7003;46.982;15.248;2023-07-20T02:33:44;96801.44;;;17.29;100.00
13867;BME280;7003;46.982;15.248;2023-07-20T02:36:14;96796.03;;;17.22;100.00
13867;BME280;7003;46.982;15.248;2023-07-20T02:38:44;96800.28;;;17.27;100.00
13867;BME280;7003;46.982;15.248;2023-07-20T02:41:14;96802.97;;;17.23;100.00
13867;BME280;7003;46.982;15.248;2023-07-20T02:43:44;96797.16;;;17.11;100.00
13867;BME280;7003;46.982;15.248;2023-07-20T02:46:11;96806.41;;;17.20;100.00
13867;BME280;7003;46.982;15.248;2023-07-20T02:48:41;96806.78;;;17.22;100.00
13867;BME280;7003;46.982;15.248;2023-07-20T02:51:09;96817.91;;;17.21;100.00
13867;BME280;7003;46.982;15.248;2023-07-20T02:53:40;96820.25;;;17.26;100.00
13867;BME280;7003;46.982;15.248;2023-07-20T02:56:09;96816.84;;;17.33;100.00
13867;BME280;7003;46.982;15.248;2023-07-20T02:58:41;96819.09;;;17.27;100.00
13867;BME280;7003;46.982;15.248;2023-07-20T03:01:14;96818.41;;;17.41;100.00
13867;BME280;7003;46.982;15.248;2023-07-20T03:03:43;96830.66;;;17.31;100.00
13867;BME280;7003;46.982;15.248;2023-07-20T03:06:14;96822.97;;;17.29;100.00
13867;BME280;7003;46.982;15.248;2023-07-20T03:08:42;96819.88;;;17.27;100.00
13867;BME280;7003;46.982;15.248;2023-07-20T03:11:15;96817.97;;;17.31;100.00
13867;BME280;7003;46.982;15.248;2023-07-20T03:13:42;96805.66;;;17.23;100.00
13867;BME280;7003;46.982;15.248;2023-07-20T03:16:13;96810.69;;;17.32;100.00
13867;BME280;7003;46.982;15.248;2023-07-20T03:18:41;96805.22;;;17.11;100.00
13867;BME280;7003;46.982;15.248;2023-07-20T03:21:10;96824.38;;;17.09;100.00
13867;BME280;7003;46.982;15.248;2023-07-20T03:23:41;96817.50;;;17.15;100.00
13867;BME280;7003;46.982;15.248;2023-07-20T03:26:11;96820.56;;;17.10;100.00
13867;BME280;7003;46.982;15.248;2023-07-20T03:28:42;96823.56;;;17.05;100.00
13867;BME280;7003;46.982;15.248;2023-07-20T03:31:12;96827.84;;;17.13;100.00
13867;BME280;7003;46.982;15.248;2023-07-20T03:33:43;96823.63;;;17.09;100.00
13867;BME280;7003;46.982;15.248;2023-07-20T03:36:10;96827.06;;;17.13;100.00
13867;BME280;7003;46.982;15.248;2023-07-20T03:38:38;96818.19;;;17.02;100.00
13867;BME280;7003;46.982;15.248;2023-07-20T03:41:11;96817.38;;;16.98;100.00
13867;BME280;7003;46.982;15.248;2023-07-20T03:43:42;96825.44;;;16.94;100.00
13867;BME280;7003;46.982;15.248;2023-07-20T03:46:10;96833.53;;;17.01;100.00
13867;BME280;7003;46.982;15.248;2023-07-20T03:48:41;96837.78;;;17.02;100.00
13867;BME280;7003;46.982;15.248;2023-07-20T03:51:11;96832.72;;;16.97;100.00
13867;BME280;7003;46.982;15.248;2023-07-20T03:53:50;96835.03;;;16.95;100.00
13867;BME280;7003;46.982;15.248;2023-07-20T03:56:22;96836.19;;;16.94;100.00
13867;BME280;7003;46.982;15.248;2023-07-20T03:59:05;96834.22;;;16.91;100.00
13867;BME280;7003;46.982;15.248;2023-07-20T04:01:37;96840.06;;;17.00;100.00
13867;BME280;7003;46.982;15.248;2023-07-20T04:04:25;96836.97;;;16.95;100.00
13867;BME280;7003;46.982;15.248;2023-07-20T04:06:58;96832.03;;;17.07;100.00
13867;BME280;7003;46.982;15.248;2023-07-20T04:09:31;96831.59;;;16.98;100.00
13867;BME280;7003;46.982;15.248;2023-07-20T04:12:04;96828.16;;;17.01;100.00
13867;BME280;7003;46.982;15.248;2023-07-20T04:14:44;96828.59;;;17.07;100.00
13867;BME280;7003;46.982;15.248;2023-07-20T04:17:15;96825.53;;;17.12;100.00
13867;BME280;7003;46.982;15.248;2023-07-20T04:19:49;96835.19;;;17.16;100.00
13867;BME280;7003;46.982;15.248;2023-07-20T04:22:21;96832.91;;;17.18;100.00
13867;BME280;7003;46.982;15.248;2023-07-20T04:24:52;96829.84;;;17.27;100.00
13867;BME280;7003;46.982;15.248;2023-07-20T04:27:21;96826.06;;;17.31;100.00
13867;BME280;7003;46.982;15.248;2023-07-20T04:30:02;96836.03;;;17.35;100.00
13867;BME280;7003;46.982;15.248;2023-07-20T04:32:33;96832.22;;;17.43;100.00
13867;BME280;7003;46.982;15.248;2023-07-20T04:35:17;96839.94;;;17.44;100.00
13867;BME280;7003;46.982;15.248;2023-07-20T04:37:51;96846.81;;;17.38;100.00
13867;BME280;7003;46.982;15.248;2023-07-20T04:40:23;96840.31;;;17.39;100.00
13867;BME280;7003;46.982;15.248;2023-07-20T04:43:04;96843.72;;;17.33;100.00
13867;BME280;7003;46.982;15.248;2023-07-20T04:45:37;96853.69;;;17.32;100.00
13867;BME280;7003;46.982;15.248;2023-07-20T04:48:13;96848.00;;;17.41;100.00
13867;BME280;7003;46.982;15.248;2023-07-20T04:50:45;96844.88;;;17.35;100.00
13867;BME280;7003;46.982;15.248;2023-07-20T04:53:17;96844.50;;;17.37;100.00
13867;BME280;7003;46.982;15.248;2023-07-20T04:55:52;96846.88;;;17.49;100.00
13867;BME280;7003;46.982;15.248;2023-07-20T04:58:21;96848.91;;;17.66;100.00
13867;BME280;7003;46.982;15.248;2023-07-20T05:00:59;96849.31;;;17.72;100.00
13867;BME280;7003;46.982;15.248;2023-07-20T05:03:32;96855.44;;;17.65;100.00
13867;BME280;7003;46.982;15.248;2023-07-20T05:06:04;96858.16;;;17.72;100.00
13867;BME280;7003;46.982;15.248;2023-07-20T05:08:34;96860.06;;;17.64;100.00
13867;BME280;7003;46.982;15.248;2023-07-20T05:11:02;96866.94;;;17.62;100.00
13867;BME280;7003;46.982;15.248;2023-07-20T05:13:30;96865.44;;;17.68;100.00
13867;BME280;7003;46.982;15.248;2023-07-20T05:15:59;96868.94;;;17.72;100.00
13867;BME280;7003;46.982;15.248;2023-07-20T05:18:29;96877.78;;;17.76;100.00
13867;BME280;7003;46.982;15.248;2023-07-20T05:20:57;96872.06;;;17.88;100.00
13867;BME280;7003;46.982;15.248;2023-07-20T05:23:25;96872.50;;;18.01;100.00
13867;BME280;7003;46.982;15.248;2023-07-20T05:25:55;96861.00;;;18.18;100.00
13867;BME280;7003;46.982;15.248;2023-07-20T05:28:23;96864.84;;;18.21;100.00
13867;BME280;7003;46.982;15.248;2023-07-20T05:30:53;96861.03;;;18.29;100.00
13867;BME280;7003;46.982;15.248;2023-07-20T05:33:25;96863.72;;;18.32;100.00
13867;BME280;7003;46.982;15.248;2023-07-20T05:35:55;96864.13;;;18.38;100.00
13867;BME280;7003;46.982;15.248;2023-07-20T05:38:23;96870.28;;;18.42;100.00
13867;BME280;7003;46.982;15.248;2023-07-20T05:40:51;96864.91;;;18.49;100.00
13867;BME280;7003;46.982;15.248;2023-07-20T05:43:21;96873.03;;;18.56;100.00
13867;BME280;7003;46.982;15.248;2023-07-20T05:45:48;96871.50;;;18.62;100.00
13867;BME280;7003;46.982;15.248;2023-07-20T05:48:18;96869.97;;;18.68;100.00
13867;BME280;7003;46.982;15.248;2023-07-20T05:50:47;96873.81;;;18.78;100.00
13867;BME280;7003;46.982;15.248;2023-07-20T05:53:17;96870.38;;;18.81;100.00
13867;BME280;7003;46.982;15.248;2023-07-20T05:55:52;96876.50;;;18.85;100.00
13867;BME280;7003;46.982;15.248;2023-07-20T05:58:19;96869.59;;;18.95;100.00
13867;BME280;7003;46.982;15.248;2023-07-20T06:00:48;96864.19;;;19.02;100.00
13867;BME280;7003;46.982;15.248;2023-07-20T06:03:19;96870.31;;;19.13;100.00
13867;BME280;7003;46.982;15.248;2023-07-20T06:05:48;96867.22;;;19.29;100.00
13867;BME280;7003;46.982;15.248;2023-07-20T06:08:18;96862.97;;;19.38;100.00
13867;BME280;7003;46.982;15.248;2023-07-20T06:10:50;96869.50;;;19.51;100.00
13867;BME280;7003;46.982;15.248;2023-07-20T06:13:18;96868.75;;;19.54;100.00
13867;BME280;7003;46.982;15.248;2023-07-20T06:15:48;96871.84;;;19.53;100.00
13867;BME280;7003;46.982;15.248;2023-07-20T06:18:19;96868.75;;;19.58;100.00
13867;BME280;7003;46.982;15.248;2023-07-20T06:20:51;96870.63;;;19.72;100.00
13867;BME280;7003;46.982;15.248;2023-07-20T06:23:20;96872.91;;;19.77;100.00
13867;BME280;7003;46.982;15.248;2023-07-20T06:25:48;96883.69;;;19.84;100.00
13867;BME280;7003;46.982;15.248;2023-07-20T06:28:15;96883.28;;;19.89;100.00
13867;BME280;7003;46.982;15.248;2023-07-20T06:30:44;96879.78;;;19.92;100.00
13867;BME280;7003;46.982;15.248;2023-07-20T06:33:11;96890.59;;;19.92;100.00
13867;BME280;7003;46.982;15.248;2023-07-20T06:35:41;96880.19;;;19.97;100.00
13867;BME280;7003;46.982;15.248;2023-07-20T06:38:10;96886.66;;;20.07;100.00
13867;BME280;7003;46.982;15.248;2023-07-20T06:40:41;96900.44;;;20.30;100.00
13867;BME280;7003;46.982;15.248;2023-07-20T06:43:09;96898.16;;;20.25;100.00
13867;BME280;7003;46.982;15.248;2023-07-20T06:45:36;96900.84;;;20.36;100.00
13867;BME280;7003;46.982;15.248;2023-07-20T06:48:06;96889.28;;;20.28;100.00
13867;BME280;7003;46.982;15.248;2023-07-20T06:50:35;96888.13;;;20.26;100.00
13867;BME280;7003;46.982;15.248;2023-07-20T06:53:06;96890.06;;;20.25;100.00
13867;BME280;7003;46.982;15.248;2023-07-20T06:55:37;96888.03;;;20.47;100.00
13867;BME280;7003;46.982;15.248;2023-07-20T06:58:08;96886.09;;;20.51;100.00
13867;BME280;7003;46.982;15.248;2023-07-20T07:00:38;96888.31;;;20.67;100.00
13867;BME280;7003;46.982;15.248;2023-07-20T07:03:08;96896.31;;;20.81;100.00
13867;BME280;7003;46.982;15.248;2023-07-20T07:05:36;96899.75;;;20.85;100.00
13867;BME280;7003;46.982;15.248;2023-07-20T07:08:04;96893.56;;;20.85;100.00
13867;BME280;7003;46.982;15.248;2023-07-20T07:10:32;96897.41;;;20.87;100.00
13867;BME280;7003;46.982;15.248;2023-07-20T07:13:03;96899.72;;;20.89;100.00
13867;BME280;7003;46.982;15.248;2023-07-20T07:15:31;96900.41;;;21.00;100.00
13867;BME280;7003;46.982;15.248;2023-07-20T07:18:01;96896.09;;;21.09;100.00
13867;BME280;7003;46.982;15.248;2023-07-20T07:20:29;96897.22;;;21.12;100.00
13867;BME280;7003;46.982;15.248;2023-07-20T07:22:56;96906.41;;;21.22;100.00
13867;BME280;7003;46.982;15.248;2023-07-20T07:25:26;96912.91;;;21.31;100.00
13867;BME280;7003;46.982;15.248;2023-07-20T07:27:54;96910.56;;;21.37;100.00
13867;BME280;7003;46.982;15.248;2023-07-20T07:30:23;96909.31;;;21.45;100.00
13867;BME280;7003;46.982;15.248;2023-07-20T07:32:51;96902.31;;;21.51;100.00
13867;BME280;7003;46.982;15.248;2023-07-20T07:35:22;96902.53;;;21.67;100.00
13867;BME280;7003;46.982;15.248;2023-07-20T07:37:51;96904.78;;;21.72;100.00
13867;BME280;7003;46.982;15.248;2023-07-20T07:40:19;96905.69;;;21.96;100.00
13867;BME280;7003;46.982;15.248;2023-07-20T07:42:46;96908.19;;;22.44;100.00
13867;BME280;7003;46.982;15.248;2023-07-20T07:45:14;96911.16;;;22.84;100.00
13867;BME280;7003;46.982;15.248;2023-07-20T07:47:46;96904.66;;;23.01;100.00
13867;BME280;7003;46.982;15.248;2023-07-20T07:50:15;96895.72;;;23.47;100.00
13867;BME280;7003;46.982;15.248;2023-07-20T07:52:43;96898.25;;;23.81;100.00
13867;BME280;7003;46.982;15.248;2023-07-20T07:55:10;96893.16;;;24.03;100.00
13867;BME280;7003;46.982;15.248;2023-07-20T07:57:37;96891.75;;;23.95;100.00
13867;BME280;7003;46.982;15.248;2023-07-20T08:00:08;96898.25;;;24.21;100.00
13867;BME280;7003;46.982;15.248;2023-07-20T08:02:43;96893.97;;;24.39;100.00
13867;BME280;7003;46.982;15.248;2023-07-20T08:05:15;96894.72;;;24.40;100.00
13867;BME280;7003;46.982;15.248;2023-07-20T08:07:45;96899.03;;;24.73;100.00
13867;BME280;7003;46.982;15.248;2023-07-20T08:10:15;96891.00;;;25.02;100.00
13867;BME280;7003;46.982;15.248;2023-07-20T08:12:45;96889.72;;;25.23;100.00
13867;BME280;7003;46.982;15.248;2023-07-20T08:15:15;96894.00;;;25.69;100.00
13867;BME280;7003;46.982;15.248;2023-07-20T08:17:42;96892.03;;;25.53;100.00
13867;BME280;7003;46.982;15.248;2023-07-20T08:20:12;96888.44;;;25.73;100.00
13867;BME280;7003;46.982;15.248;2023-07-20T08:22:44;96890.06;;;25.70;95.19
13867;BME280;7003;46.982;15.248;2023-07-20T08:25:14;96889.81;;;25.48;87.80
13867;BME280;7003;46.982;15.248;2023-07-20T08:27:44;96891.31;;;25.37;93.97
13867;BME280;7003;46.982;15.248;2023-07-20T08:30:12;96890.31;;;25.30;97.28
13867;BME280;7003;46.982;15.248;2023-07-20T08:32:39;96892.81;;;25.54;92.50
13867;BME280;7003;46.982;15.248;2023-07-20T08:35:07;96898.47;;;25.76;93.01
13867;BME280;7003;46.982;15.248;2023-07-20T08:37:37;96893.78;;;25.76;85.13
13867;BME280;7003;46.982;15.248;2023-07-20T08:40:07;96892.16;;;25.79;89.07
13867;BME280;7003;46.982;15.248;2023-07-20T08:42:36;96890.88;;;25.83;100.00
13867;BME280;7003;46.982;15.248;2023-07-20T08:45:06;96889.38;;;25.95;87.23
13867;BME280;7003;46.982;15.248;2023-07-20T08:47:38;96890.06;;;26.12;82.30
13867;BME280;7003;46.982;15.248;2023-07-20T08:50:07;96886.88;;;26.29;84.44
13867;BME280;7003;46.982;15.248;2023-07-20T08:52:35;96882.19;;;25.59;74.87
13867;BME280;7003;46.982;15.248;2023-07-20T08:55:07;96890.41;;;25.11;74.52
13867;BME280;7003;46.982;15.248;2023-07-20T08:57:39;96883.09;;;25.08;89.33
13867;BME280;7003;46.982;15.248;2023-07-20T09:00:09;96881.88;;;25.09;73.67
13867;BME280;7003;46.982;15.248;2023-07-20T09:02:42;96884.91;;;25.59;80.99
13867;BME280;7003;46.982;15.248;2023-07-20T09:05:12;96878.53;;;25.34;78.08
13867;BME280;7003;46.982;15.248;2023-07-20T09:07:42;96875.13;;;25.46;74.49
13867;BME280;7003;46.982;15.248;2023-07-20T09:10:11;96887.22;;;25.45;70.48
13867;BME280;7003;46.982;15.248;2023-07-20T09:12:39;96878.50;;;25.21;74.16
13867;BME280;7003;46.982;15.248;2023-07-20T09:15:10;96877.97;;;25.26;69.46
13867;BME280;7003;46.982;15.248;2023-07-20T09:17:38;96878.47;;;25.37;67.35
13867;BME280;7003;46.982;15.248;2023-07-20T09:20:07;96874.34;;;25.61;67.01
13867;BME280;7003;46.982;15.248;2023-07-20T09:22:39;96876.38;;;25.57;65.72
13867;BME280;7003;46.982;15.248;2023-07-20T09:25:07;96882.03;;;25.79;61.66
13867;BME280;7003;46.982;15.248;2023-07-20T09:27:39;96877.41;;;26.05;66.62
13867;BME280;7003;46.982;15.248;2023-07-20T09:30:07;96880.75;;;25.84;67.61
13867;BME280;7003;46.982;15.248;2023-07-20T09:32:40;96882.19;;;25.43;65.12
13867;BME280;7003;46.982;15.248;2023-07-20T09:35:14;96883.09;;;25.08;64.50
13867;BME280;7003;46.982;15.248;2023-07-20T09:37:48;96875.25;;;25.10;75.45
13867;BME280;7003;46.982;15.248;2023-07-20T09:40:18;96873.38;;;25.23;79.09
13867;BME280;7003;46.982;15.248;2023-07-20T09:42:47;96872.34;;;25.17;72.82
13867;BME280;7003;46.982;15.248;2023-07-20T09:45:17;96873.97;;;25.30;80.56
13867;BME280;7003;46.982;15.248;2023-07-20T09:47:47;96882.31;;;25.23;70.93
13867;BME280;7003;46.982;15.248;2023-07-20T09:50:14;96868.13;;;25.16;75.86
13867;BME280;7003;46.982;15.248;2023-07-20T09:52:44;96875.00;;;25.04;72.29
13867;BME280;7003;46.982;15.248;2023-07-20T09:55:12;96872.34;;;25.17;78.45
13867;BME280;7003;46.982;15.248;2023-07-20T09:57:42;96876.28;;;25.16;73.64
13867;BME280;7003;46.982;15.248;2023-07-20T10:00:12;96874.88;;;25.40;71.22
13867;BME280;7003;46.982;15.248;2023-07-20T10:02:44;96877.84;;;25.46;71.69
13867;BME280;7003;46.982;15.248;2023-07-20T10:05:13;96876.03;;;25.55;74.69
13867;BME280;7003;46.982;15.248;2023-07-20T10:07:44;96875.22;;;25.42;71.75
13867;BME280;7003;46.982;15.248;2023-07-20T10:10:17;96861.63;;;25.26;75.16
13867;BME280;7003;46.982;15.248;2023-07-20T10:12:48;96875.06;;;25.17;72.41
13867;BME280;7003;46.982;15.248;2023-07-20T10:15:23;96872.78;;;25.32;74.76
13867;BME280;7003;46.982;15.248;2023-07-20T10:17:59;96873.88;;;25.34;73.96
13867;BME280;7003;46.982;15.248;2023-07-20T10:20:30;96872.50;;;25.26;68.56
13867;BME280;7003;46.982;15.248;2023-07-20T10:23:03;96867.38;;;25.44;77.10
13867;BME280;7003;46.982;15.248;2023-07-20T10:25:31;96859.16;;;25.77;76.08
13867;BME280;7003;46.982;15.248;2023-07-20T10:28:00;96851.47;;;26.13;80.57
13867;BME280;7003;46.982;15.248;2023-07-20T10:30:29;96852.28;;;26.64;83.16
13867;BME280;7003;46.982;15.248;2023-07-20T10:32:56;96851.16;;;26.87;69.64
13867;BME280;7003;46.982;15.248;2023-07-20T10:35:24;96847.06;;;27.30;64.79
13867;BME280;7003;46.982;15.248;2023-07-20T10:37:55;96857.50;;;27.44;63.24
13867;BME280;7003;46.982;15.248;2023-07-20T10:40:30;96854.69;;;27.35;61.33
13867;BME280;7003;46.982;15.248;2023-07-20T10:42:59;96860.25;;;26.84;60.84
13867;BME280;7003;46.982;15.248;2023-07-20T10:45:42;96851.16;;;27.12;64.96
13867;BME280;7003;46.982;15.248;2023-07-20T10:48:17;96850.25;;;27.50;66.90
13867;BME280;7003;46.982;15.248;2023-07-20T10:51:08;96859.34;;;26.87;65.55
13867;BME280;7003;46.982;15.248;2023-07-20T10:53:43;96853.59;;;26.60;70.83
13867;BME280;7003;46.982;15.248;2023-07-20T10:56:12;96852.47;;;26.19;64.22
13867;BME280;7003;46.982;15.248;2023-07-20T10:58:43;96848.19;;;26.18;70.38
13867;BME280;7003;46.982;15.248;2023-07-20T11:01:16;96845.81;;;26.08;73.01
13867;BME280;7003;46.982;15.248;2023-07-20T11:03:49;96851.50;;;25.55;70.48
13867;BME280;7003;46.982;15.248;2023-07-20T11:06:31;96855.69;;;25.31;73.84
13867;BME280;7003;46.982;15.248;2023-07-20T11:09:07;96857.06;;;25.23;73.98
13867;BME280;7003;46.982;15.248;2023-07-20T11:11:37;96855.78;;;25.11;74.75
13867;BME280;7003;46.982;15.248;2023-07-20T11:14:08;96856.28;;;24.90;70.87
13867;BME280;7003;46.982;15.248;2023-07-20T11:16:39;96857.56;;;24.69;69.22
13867;BME280;7003;46.982;15.248;2023-07-20T11:19:14;96850.59;;;24.68;73.45
13867;BME280;7003;46.982;15.248;2023-07-20T11:21:45;96852.97;;;24.66;79.06
13867;BME280;7003;46.982;15.248;2023-07-20T11:24:15;96849.41;;;24.85;83.58
13867;BME280;7003;46.982;15.248;2023-07-20T11:26:44;96843.56;;;25.32;90.92
13867;BME280;7003;46.982;15.248;2023-07-20T11:29:12;96846.38;;;26.15;89.01
13867;BME280;7003;46.982;15.248;2023-07-20T11:31:44;96841.06;;;26.50;80.40
13867;BME280;7003;46.982;15.248;2023-07-20T11:34:16;96833.81;;;26.81;77.59
13867;BME280;7003;46.982;15.248;2023-07-20T11:36:45;96844.97;;;26.87;81.57
13867;BME280;7003;46.982;15.248;2023-07-20T11:39:16;96843.09;;;26.83;67.49
13867;BME280;7003;46.982;15.248;2023-07-20T11:41:48;96840.19;;;26.53;58.00
13867;BME280;7003;46.982;15.248;2023-07-20T11:44:19;96845.97;;;26.55;70.38
13867;BME280;7003;46.982;15.248;2023-07-20T11:46:59;96850.09;;;26.59;64.86
13867;BME280;7003;46.982;15.248;2023-07-20T11:49:30;96836.16;;;26.70;69.59
13867;BME280;7003;46.982;15.248;2023-07-20T11:51:58;96840.16;;;26.78;66.21
13867;BME280;7003;46.982;15.248;2023-07-20T11:54:28;96834.59;;;26.81;58.26
13867;BME280;7003;46.982;15.248;2023-07-20T11:57:00;96833.28;;;26.73;60.67
13867;BME280;7003;46.982;15.248;2023-07-20T11:59:28;96831.97;;;26.91;60.26
13867;BME280;7003;46.982;15.248;2023-07-20T12:02:00;96831.94;;;27.16;59.49
13867;BME280;7003;46.982;15.248;2023-07-20T12:04:28;96833.31;;;27.20;58.99
13867;BME280;7003;46.982;15.248;2023-07-20T12:06:58;96832.44;;;27.24;60.64
13867;BME280;7003;46.982;15.248;2023-07-20T12:09:28;96823.81;;;27.25;63.86
13867;BME280;7003;46.982;15.248;2023-07-20T12:11:58;96836.88;;;26.83;67.71
13867;BME280;7003;46.982;15.248;2023-07-20T12:14:28;96833.41;;;26.70;72.03
13867;BME280;7003;46.982;15.248;2023-07-20T12:16:55;96840.56;;;26.13;73.58
13867;BME280;7003;46.982;15.248;2023-07-20T12:19:27;96840.31;;;25.82;72.28
13867;BME280;7003;46.982;15.248;2023-07-20T12:21:57;96842.06;;;25.31;100.00
13867;BME280;7003;46.982;15.248;2023-07-20T12:24:26;96848.47;;;25.53;100.00
13867;BME280;7003;46.982;15.248;2023-07-20T12:26:56;96847.06;;;25.33;100.00
13867;BME280;7003;46.982;15.248;2023-07-20T12:29:26;96838.13;;;25.32;100.00
13867;BME280;7003;46.982;15.248;2023-07-20T12:31:55;96838.13;;;25.32;100.00
13867;BME280;7003;46.982;15.248;2023-07-20T12:34:23;96838.88;;;25.04;100.00
13867;BME280;7003;46.982;15.248;2023-07-20T12:36:51;96849.47;;;24.13;100.00
13867;BME280;7003;46.982;15.248;2023-07-20T12:39:19;96861.75;;;24.22;100.00
13867;BME280;7003;46.982;15.248;2023-07-20T12:41:46;96857.69;;;24.10;100.00
13867;BME280;7003;46.982;15.248;2023-07-20T12:44:15;96858.41;;;23.94;100.00
13867;BME280;7003;46.982;15.248;2023-07-20T12:46:43;96862.25;;;23.77;100.00
13867;BME280;7003;46.982;15.248;2023-07-20T12:49:12;96863.13;;;23.51;100.00
13867;BME280;7003;46.982;15.248;2023-07-20T12:51:42;96865.09;;;23.27;100.00
13867;BME280;7003;46.982;15.248;2023-07-20T12:54:11;96865.34;;;23.13;100.00
13867;BME280;7003;46.982;15.248;2023-07-20T12:56:40;96874.00;;;23.04;100.00
13867;BME280;7003;46.982;15.248;2023-07-20T12:59:10;96887.69;;;22.97;100.00
13867;BME280;7003;46.982;15.248;2023-07-20T13:01:38;96900.22;;;22.60;100.00
13867;BME280;7003;46.982;15.248;2023-07-20T13:04:07;96898.13;;;22.45;100.00
13867;BME280;7003;46.982;15.248;2023-07-20T13:06:36;96885.38;;;22.42;100.00
13867;BME280;7003;46.982;15.248;2023-07-20T13:09:03;96877.50;;;22.51;100.00
13867;BME280;7003;46.982;15.248;2023-07-20T13:11:31;96888.84;;;22.42;100.00
13867;BME280;7003;46.982;15.248;2023-07-20T13:14:02;96898.25;;;22.34;100.00